Time;durP1;ratioP1;P1;durP2;ratioP2;P2;SDS_P1;SDS_P2;PMS_P1;PMS_P2;Temp;Humidity;BMP_temperature;BMP_pressure;BME280_temperature;BME280_humidity;BME280_pressure;Samples;Min_cycle;Max_cycle;Signal;HPM_P1;HPM_P2
2022/04/25 00:00:56;;;;;;;20.30;10.52;;;;;;;;;;4992586;28;20519;-76
2022/04/25 00:03:22;;;;;;;20.17;10.65;;;;;;;;;;4968667;28;20056;-75
2022/04/25 00:05:48;;;;;;;19.92;10.60;;;;;;;;;;4994138;28;20085;-75
2022/04/25 00:08:15;;;;;;;18.83;11.20;;;;;;;;;;4992625;28;20049;-76
2022/04/25 00:10:41;;;;;;;18.35;10.27;;;;;;;;;;5010677;28;20100;-75
2022/04/25 00:13:07;;;;;;;18.50;10.73;;;;;;;;;;4976884;28;20129;-74
2022/04/25 00:15:33;;;;;;;16.80;10.23;;;;;;;;;;4955223;28;20046;-74
2022/04/25 00:17:59;;;;;;;17.58;10.63;;;;;;;;;;4973843;28;20069;-75
2022/04/25 00:20:25;;;;;;;16.25;10.40;;;;;;;;;;4977231;28;20061;-75
2022/04/25 00:22:51;;;;;;;21.13;10.80;;;;;;;;;;4967522;28;20054;-76
2022/04/25 00:25:17;;;;;;;16.88;10.82;;;;;;;;;;5006045;28;20050;-75
2022/04/25 00:27:43;;;;;;;18.40;10.80;;;;;;;;;;4977054;28;20506;-75
2022/04/25 00:30:09;;;;;;;16.63;10.82;;;;;;;;;;4955703;28;20042;-75
2022/04/25 00:32:35;;;;;;;18.33;11.15;;;;;;;;;;4994704;28;20169;-75
2022/04/25 00:35:03;;;;;;;20.65;12.02;;;;;;;;;;4997191;28;20049;-78
2022/04/25 00:37:30;;;;;;;17.02;11.32;;;;;;;;;;4996998;28;20049;-75
2022/04/25 00:39:56;;;;;;;17.45;11.30;;;;;;;;;;4997798;28;20057;-75
2022/04/25 00:42:22;;;;;;;16.73;11.50;;;;;;;;;;4973376;28;20646;-76
2022/04/25 00:44:48;;;;;;;21.73;12.38;;;;;;;;;;4979859;28;20061;-76
2022/04/25 00:47:15;;;;;;;20.70;12.88;;;;;;;;;;4958415;28;20054;-75
2022/04/25 00:49:41;;;;;;;20.27;11.90;;;;;;;;;;4995417;28;20049;-75
2022/04/25 00:52:07;;;;;;;20.85;12.60;;;;;;;;;;4980182;28;20481;-76
2022/04/25 00:54:33;;;;;;;18.00;11.10;;;;;;;;;;4966504;28;20097;-75
2022/04/25 00:57:00;;;;;;;15.75;11.43;;;;;;;;;;4946629;28;20065;-76
2022/04/25 00:59:26;;;;;;;19.70;11.82;;;;;;;;;;4982118;28;20057;-76
2022/04/25 01:01:52;;;;;;;20.35;12.77;;;;;;;;;;4980747;28;20085;-76
2022/04/25 01:04:19;;;;;;;17.60;12.00;;;;;;;;;;4952145;28;20054;-75
2022/04/25 01:06:46;;;;;;;20.80;11.98;;;;;;;;;;4996506;28;20104;-75
2022/04/25 01:09:12;;;;;;;21.05;12.38;;;;;;;;;;4966723;28;20047;-73
2022/04/25 01:11:38;;;;;;;17.50;11.65;;;;;;;;;;4995856;28;20041;-76
2022/04/25 01:14:17;;;;;;;17.13;11.65;;;;;;;;;;4978120;28;20050;-74
2022/04/25 01:16:44;;;;;;;19.70;11.80;;;;;;;;;;4968619;28;20042;-73
2022/04/25 01:19:10;;;;;;;17.42;11.88;;;;;;;;;;5011878;28;20062;-73
2022/04/25 01:21:40;;;;;;;19.55;11.10;;;;;;;;;;4997151;28;20052;-73
2022/04/25 01:29:37;;;;;;;17.52;12.18;;;;;;;;;;4988191;28;20104;-73
2022/04/25 01:32:03;;;;;;;18.40;11.10;;;;;;;;;;4987521;28;20481;-73
2022/04/25 01:34:30;;;;;;;18.80;12.15;;;;;;;;;;4979373;28;20050;-74
2022/04/25 01:36:56;;;;;;;20.48;11.90;;;;;;;;;;4996642;28;20049;-74
2022/04/25 01:39:22;;;;;;;20.88;12.98;;;;;;;;;;4969006;28;20054;-74
2022/04/25 01:41:48;;;;;;;18.55;11.70;;;;;;;;;;4962642;28;20085;-74
2022/04/25 01:44:14;;;;;;;18.42;11.95;;;;;;;;;;4977433;28;20050;-74
2022/04/25 01:46:40;;;;;;;18.05;12.45;;;;;;;;;;4990665;28;20121;-74
2022/04/25 01:49:06;;;;;;;21.95;13.38;;;;;;;;;;4966424;28;20125;-78
2022/04/25 01:51:33;;;;;;;18.90;12.65;;;;;;;;;;4995649;28;20046;-75
2022/04/25 01:53:59;;;;;;;24.20;13.18;;;;;;;;;;4996357;28;20050;-74
2022/04/25 01:56:25;;;;;;;21.55;12.88;;;;;;;;;;4963694;28;20136;-74
2022/04/25 01:58:52;;;;;;;21.40;13.27;;;;;;;;;;4964410;28;20049;-76
2022/04/25 02:01:18;;;;;;;20.02;12.82;;;;;;;;;;4995861;28;20133;-74
2022/04/25 02:03:45;;;;;;;21.33;13.32;;;;;;;;;;4980110;28;20054;-74
2022/04/25 02:06:11;;;;;;;21.75;12.75;;;;;;;;;;4983637;28;20058;-77
2022/04/25 02:08:38;;;;;;;18.75;12.68;;;;;;;;;;4971178;28;20057;-74
2022/04/25 02:11:20;;;;;;;20.73;12.90;;;;;;;;;;4972421;28;20073;-74
2022/04/25 02:13:46;;;;;;;20.77;12.98;;;;;;;;;;4979739;28;20481;-74
2022/04/25 02:16:12;;;;;;;18.77;12.73;;;;;;;;;;4972641;28;20508;-75
2022/04/25 02:18:41;;;;;;;20.95;13.02;;;;;;;;;;4979411;28;20429;-73
2022/04/25 02:21:08;;;;;;;17.77;11.65;;;;;;;;;;4979570;28;20054;-74
2022/04/25 02:23:34;;;;;;;22.63;12.15;;;;;;;;;;4979501;28;20085;-74
2022/04/25 02:26:01;;;;;;;19.40;11.73;;;;;;;;;;4989716;28;20046;-75
2022/04/25 02:28:27;;;;;;;19.80;11.48;;;;;;;;;;4973458;28;20054;-74
2022/04/25 02:30:53;;;;;;;19.00;11.98;;;;;;;;;;4995008;28;20041;-74
2022/04/25 02:33:20;;;;;;;20.42;12.25;;;;;;;;;;4956151;28;20445;-75
2022/04/25 02:35:46;;;;;;;20.42;12.25;;;;;;;;;;5006211;28;20601;-74
2022/04/25 02:38:12;;;;;;;21.20;12.55;;;;;;;;;;4995143;28;20048;-77
2022/04/25 02:40:38;;;;;;;18.83;12.05;;;;;;;;;;4998751;28;20437;-74
2022/04/25 02:43:04;;;;;;;17.23;12.00;;;;;;;;;;4976575;28;20100;-74
2022/04/25 02:45:30;;;;;;;18.58;11.70;;;;;;;;;;4977855;28;20054;-73
2022/04/25 02:47:56;;;;;;;21.58;12.85;;;;;;;;;;4990213;28;20100;-76
2022/04/25 02:50:22;;;;;;;18.20;12.85;;;;;;;;;;4960979;28;20046;-74
2022/04/25 02:52:53;;;;;;;17.30;12.30;;;;;;;;;;4996803;28;20062;-74
2022/04/25 02:55:19;;;;;;;19.48;12.60;;;;;;;;;;4963164;28;20050;-74
2022/04/25 02:57:45;;;;;;;29.40;13.45;;;;;;;;;;4992485;28;20481;-73
2022/04/25 03:00:11;;;;;;;16.75;11.65;;;;;;;;;;4977356;28;20057;-74
2022/04/25 03:02:38;;;;;;;19.80;12.13;;;;;;;;;;5012008;28;20093;-74
2022/04/25 03:05:04;;;;;;;17.80;11.00;;;;;;;;;;4979005;28;20053;-73
2022/04/25 03:07:30;;;;;;;21.80;12.25;;;;;;;;;;4978425;28;20174;-74
2022/04/25 03:09:57;;;;;;;16.40;10.57;;;;;;;;;;4994609;28;20065;-76
2022/04/25 03:12:23;;;;;;;18.25;10.65;;;;;;;;;;4977503;28;20050;-74
2022/04/25 03:14:50;;;;;;;20.08;10.93;;;;;;;;;;4994648;28;20125;-75
2022/04/25 03:17:16;;;;;;;16.23;10.65;;;;;;;;;;4978299;28;20096;-74
2022/04/25 03:19:44;;;;;;;17.17;11.32;;;;;;;;;;4980307;28;20065;-74
2022/04/25 03:22:10;;;;;;;16.80;10.60;;;;;;;;;;4972885;28;20129;-74
2022/04/25 03:24:36;;;;;;;15.73;10.30;;;;;;;;;;4978173;28;20045;-73
2022/04/25 03:27:02;;;;;;;19.52;10.88;;;;;;;;;;4973293;28;20118;-74
2022/04/25 03:29:28;;;;;;;15.23;10.18;;;;;;;;;;4989860;28;20072;-74
2022/04/25 03:31:54;;;;;;;19.23;10.45;;;;;;;;;;4978688;28;20049;-77
2022/04/25 03:34:20;;;;;;;15.18;9.65;;;;;;;;;;4957546;28;20054;-75
2022/04/25 03:36:51;;;;;;;20.45;9.15;;;;;;;;;;4978425;28;20103;-74
2022/04/25 03:39:17;;;;;;;18.83;8.82;;;;;;;;;;4978325;28;20077;-75
2022/04/25 03:41:43;;;;;;;17.52;9.45;;;;;;;;;;4985156;28;20065;-74
2022/04/25 03:44:10;;;;;;;14.13;9.13;;;;;;;;;;4970515;28;20112;-74
2022/04/25 03:46:36;;;;;;;14.63;8.50;;;;;;;;;;4993777;28;20042;-75
2022/04/25 03:49:02;;;;;;;12.27;8.00;;;;;;;;;;4951827;28;20061;-75
2022/04/25 03:51:29;;;;;;;16.88;8.65;;;;;;;;;;4967545;28;20127;-75
2022/04/25 03:53:55;;;;;;;15.35;8.55;;;;;;;;;;4978681;28;20195;-75
2022/04/25 03:59:06;;;;;;;12.75;7.95;;;;;;;;;;4981069;28;20405;-74
2022/04/25 04:01:34;;;;;;;15.45;8.30;;;;;;;;;;4993467;28;20050;-75
2022/04/25 04:04:05;;;;;;;13.27;8.02;;;;;;;;;;5008621;28;20144;-74
2022/04/25 04:06:32;;;;;;;17.40;8.95;;;;;;;;;;4962091;28;20050;-74
2022/04/25 04:08:58;;;;;;;13.15;8.48;;;;;;;;;;4979526;28;20133;-74
2022/04/25 04:11:46;;;;;;;14.45;9.05;;;;;;;;;;4996221;28;20058;-74
2022/04/25 04:14:11;;;;;;;15.25;9.27;;;;;;;;;;4991615;28;20508;-74
2022/04/25 04:16:37;;;;;;;13.95;9.77;;;;;;;;;;5014388;28;20072;-75
2022/04/25 04:19:05;;;;;;;15.35;10.18;;;;;;;;;;4985955;28;20057;-74
2022/04/25 04:21:31;;;;;;;16.48;10.25;;;;;;;;;;4963166;28;20136;-74
2022/04/25 04:23:59;;;;;;;13.30;9.10;;;;;;;;;;4990972;28;20081;-73
2022/04/25 04:26:25;;;;;;;12.90;9.15;;;;;;;;;;4961640;28;20046;-74
2022/04/25 04:28:51;;;;;;;19.60;11.27;;;;;;;;;;4987953;28;20146;-75
2022/04/25 04:31:17;;;;;;;16.33;9.90;;;;;;;;;;4981750;28;20136;-74
2022/04/25 04:33:43;;;;;;;17.10;10.52;;;;;;;;;;4973038;28;20046;-74
2022/04/25 04:36:18;;;;;;;18.25;11.20;;;;;;;;;;4974915;28;20054;-74
2022/04/25 04:38:45;;;;;;;15.48;10.25;;;;;;;;;;4965319;28;20050;-73
2022/04/25 04:41:11;;;;;;;18.63;10.57;;;;;;;;;;4997761;28;20073;-74
2022/04/25 04:43:37;;;;;;;16.75;10.05;;;;;;;;;;4983513;28;20049;-74
2022/04/25 04:46:03;;;;;;;15.05;10.52;;;;;;;;;;4997023;28;20500;-74
2022/04/25 04:48:29;;;;;;;19.20;10.35;;;;;;;;;;4980748;28;20049;-74
2022/04/25 04:50:56;;;;;;;15.30;10.43;;;;;;;;;;4981088;28;20409;-74
2022/04/25 04:53:23;;;;;;;18.30;10.07;;;;;;;;;;4980035;28;20474;-78
2022/04/25 04:55:49;;;;;;;12.63;9.85;;;;;;;;;;4997329;28;20128;-74
2022/04/25 04:58:15;;;;;;;16.85;10.75;;;;;;;;;;4996240;28;20076;-74
2022/04/25 05:00:44;;;;;;;16.55;10.52;;;;;;;;;;4988699;28;20045;-74
2022/04/25 05:03:13;;;;;;;19.77;10.85;;;;;;;;;;4997666;28;20053;-74
2022/04/25 05:05:40;;;;;;;13.32;9.90;;;;;;;;;;4996797;28;20462;-74
2022/04/25 05:08:06;;;;;;;16.98;10.02;;;;;;;;;;4996717;28;20516;-74
2022/04/25 05:10:32;;;;;;;20.60;10.80;;;;;;;;;;4978279;28;20050;-74
2022/04/25 05:12:58;;;;;;;15.25;10.15;;;;;;;;;;4993215;28;20084;-74
2022/04/25 05:15:24;;;;;;;14.07;10.02;;;;;;;;;;4980540;28;20053;-74
2022/04/25 05:17:53;;;;;;;19.67;10.70;;;;;;;;;;4997000;28;20125;-77
2022/04/25 05:20:20;;;;;;;16.70;10.32;;;;;;;;;;4979883;28;20056;-75
2022/04/25 05:22:47;;;;;;;15.90;11.27;;;;;;;;;;4996206;28;20477;-75
2022/04/25 05:25:14;;;;;;;16.48;10.88;;;;;;;;;;4989397;28;20485;-74
2022/04/25 05:27:41;;;;;;;21.10;10.98;;;;;;;;;;4979426;28;20042;-75
2022/04/25 05:30:07;;;;;;;16.17;10.57;;;;;;;;;;4974933;28;20065;-75
2022/04/25 05:32:40;;;;;;;20.48;10.90;;;;;;;;;;4984267;28;20054;-75
2022/04/25 05:35:07;;;;;;;14.50;10.13;;;;;;;;;;4996951;28;20478;-75
2022/04/25 05:37:33;;;;;;;16.38;10.68;;;;;;;;;;4996561;28;20046;-75
2022/04/25 05:39:59;;;;;;;12.55;9.95;;;;;;;;;;4981000;28;20045;-74
2022/04/25 05:42:25;;;;;;;17.38;11.48;;;;;;;;;;4980464;28;20058;-74
2022/04/25 05:44:51;;;;;;;19.30;11.07;;;;;;;;;;5013671;28;20104;-75
2022/04/25 05:47:17;;;;;;;18.45;10.02;;;;;;;;;;4952696;28;20497;-74
2022/04/25 05:52:28;;;;;;;14.65;10.50;;;;;;;;;;4996461;28;20057;-74
2022/04/25 05:54:54;;;;;;;17.60;10.60;;;;;;;;;;4980032;28;20132;-74
2022/04/25 05:57:22;;;;;;;16.67;9.75;;;;;;;;;;4951316;28;20076;-75
2022/04/25 05:59:48;;;;;;;14.32;9.45;;;;;;;;;;4979770;28;20046;-75
2022/04/25 06:02:17;;;;;;;16.95;9.13;;;;;;;;;;4956965;28;20141;-74
2022/04/25 06:04:43;;;;;;;14.30;9.50;;;;;;;;;;4976421;28;20057;-75
2022/04/25 06:07:09;;;;;;;15.73;9.50;;;;;;;;;;4961565;28;20145;-74
2022/04/25 06:09:35;;;;;;;14.52;10.30;;;;;;;;;;4992772;28;20050;-75
2022/04/25 06:12:04;;;;;;;14.85;10.23;;;;;;;;;;4991911;28;20038;-74
2022/04/25 06:14:31;;;;;;;18.17;10.13;;;;;;;;;;4994726;28;20054;-75
2022/04/25 06:16:59;;;;;;;16.85;10.20;;;;;;;;;;4979420;28;20397;-74
2022/04/25 06:19:25;;;;;;;14.23;10.23;;;;;;;;;;4974262;28;20141;-74
2022/04/25 06:21:51;;;;;;;16.23;11.43;;;;;;;;;;4970435;28;20061;-75
2022/04/25 06:24:18;;;;;;;13.88;10.02;;;;;;;;;;4985013;28;20158;-74
2022/04/25 06:26:47;;;;;;;16.40;10.20;;;;;;;;;;4994099;28;20483;-74
2022/04/25 06:29:13;;;;;;;14.05;10.77;;;;;;;;;;4973363;28;20080;-74
2022/04/25 06:31:39;;;;;;;16.15;10.07;;;;;;;;;;4987199;28;20076;-75
2022/04/25 06:34:05;;;;;;;14.23;9.60;;;;;;;;;;4979367;28;20388;-74
2022/04/25 06:36:32;;;;;;;13.43;9.52;;;;;;;;;;4978683;28;20054;-75
2022/04/25 06:38:59;;;;;;;14.25;9.95;;;;;;;;;;4978874;28;20058;-74
2022/04/25 06:41:25;;;;;;;21.15;9.70;;;;;;;;;;5002991;28;20053;-74
2022/04/25 06:43:51;;;;;;;19.55;10.50;;;;;;;;;;4994801;28;20084;-76
2022/04/25 06:46:17;;;;;;;18.35;11.35;;;;;;;;;;4977206;28;20056;-74
2022/04/25 06:49:19;;;;;;;14.60;10.27;;;;;;;;;;4978118;28;20053;-75
2022/04/25 06:51:30;;;;;;;18.73;11.00;;;;;;;;;;4994244;28;20042;-79
2022/04/25 06:53:57;;;;;;;15.50;10.23;;;;;;;;;;4995670;28;20061;-74
2022/04/25 06:56:23;;;;;;;16.92;9.80;;;;;;;;;;4991988;28;20046;-75
2022/04/25 06:58:49;;;;;;;14.27;10.02;;;;;;;;;;4985147;28;20237;-74
2022/04/25 07:01:15;;;;;;;17.65;11.07;;;;;;;;;;5002084;28;20050;-75
2022/04/25 07:03:42;;;;;;;14.98;9.50;;;;;;;;;;4966612;28;20054;-74
2022/04/25 07:06:08;;;;;;;16.55;9.73;;;;;;;;;;4990838;28;20120;-74
2022/04/25 07:08:34;;;;;;;14.23;9.13;;;;;;;;;;4989820;28;20097;-75
2022/04/25 07:11:00;;;;;;;13.63;9.13;;;;;;;;;;4978216;28;20096;-75
2022/04/25 07:13:26;;;;;;;14.73;9.27;;;;;;;;;;4994657;28;20057;-75
2022/04/25 07:15:52;;;;;;;13.82;9.50;;;;;;;;;;4978409;28;20046;-74
2022/04/25 07:18:18;;;;;;;16.05;9.57;;;;;;;;;;4978784;28;20050;-73
2022/04/25 07:20:44;;;;;;;18.40;10.02;;;;;;;;;;4978496;28;20054;-74
2022/04/25 07:28:52;;;;;;;15.60;10.30;;;;;;;;;;4964173;28;20049;-74
2022/04/25 07:31:19;;;;;;;16.58;9.75;;;;;;;;;;4985460;28;20042;-74
2022/04/25 07:33:45;;;;;;;15.35;10.25;;;;;;;;;;4963475;28;20054;-74
2022/04/25 07:36:12;;;;;;;13.98;9.48;;;;;;;;;;4964187;28;20045;-74
2022/04/25 07:38:39;;;;;;;13.57;9.98;;;;;;;;;;5010073;28;20049;-74
2022/04/25 07:41:07;;;;;;;15.95;10.73;;;;;;;;;;4993546;28;20062;-75
2022/04/25 07:43:34;;;;;;;18.98;10.38;;;;;;;;;;4977289;28;20125;-76
2022/04/25 07:46:00;;;;;;;22.20;12.07;;;;;;;;;;4994229;28;20061;-74
2022/04/25 07:48:27;;;;;;;21.25;10.93;;;;;;;;;;4994503;28;20049;-74
2022/04/25 07:50:53;;;;;;;17.20;10.43;;;;;;;;;;4977724;28;20046;-74
2022/04/25 07:53:19;;;;;;;18.25;11.15;;;;;;;;;;4977700;28;20038;-74
2022/04/25 07:55:45;;;;;;;16.60;10.43;;;;;;;;;;4993946;28;20050;-74
2022/04/25 07:58:11;;;;;;;17.17;10.57;;;;;;;;;;4978368;28;20050;-74
2022/04/25 08:00:41;;;;;;;15.07;10.82;;;;;;;;;;4949157;28;20045;-74
2022/04/25 08:03:08;;;;;;;18.48;10.50;;;;;;;;;;4976092;28;20480;-74
2022/04/25 08:05:34;;;;;;;16.65;10.02;;;;;;;;;;4976295;28;20049;-74
2022/04/25 08:08:00;;;;;;;16.00;8.80;;;;;;;;;;4967486;28;20038;-75
2022/04/25 08:10:26;;;;;;;16.73;9.07;;;;;;;;;;4959907;28;20125;-74
2022/04/25 08:18:21;;;;;;;16.20;8.60;;;;;;;;;;4991765;28;20130;-75
2022/04/25 08:20:48;;;;;;;20.00;9.65;;;;;;;;;;4974780;28;20060;-74
2022/04/25 08:23:14;;;;;;;14.40;8.85;;;;;;;;;;4974420;28;20087;-74
2022/04/25 08:25:41;;;;;;;13.30;7.53;;;;;;;;;;4952840;28;20051;-74
2022/04/25 08:28:08;;;;;;;21.13;7.47;;;;;;;;;;4981989;28;20043;-75
2022/04/25 08:30:34;;;;;;;12.68;7.32;;;;;;;;;;4941008;28;20053;-78
2022/04/25 08:33:01;;;;;;;13.85;7.00;;;;;;;;;;4966140;28;20073;-74
2022/04/25 08:35:28;;;;;;;12.32;6.43;;;;;;;;;;5003811;28;20153;-74
2022/04/25 08:37:54;;;;;;;11.10;6.82;;;;;;;;;;5004540;28;20054;-75
2022/04/25 08:40:21;;;;;;;22.83;7.32;;;;;;;;;;4988374;28;20053;-76
2022/04/25 08:42:47;;;;;;;13.80;6.93;;;;;;;;;;4972803;28;20447;-74
2022/04/25 08:45:14;;;;;;;16.08;7.93;;;;;;;;;;4976456;28;20041;-73
2022/04/25 08:47:47;;;;;;;13.38;7.30;;;;;;;;;;4993185;28;20038;-74
2022/04/25 08:50:16;;;;;;;10.90;7.07;;;;;;;;;;4977301;28;20381;-76
2022/04/25 08:52:43;;;;;;;18.73;8.18;;;;;;;;;;4993684;28;20038;-74
2022/04/25 08:55:10;;;;;;;16.33;9.35;;;;;;;;;;4964548;28;20057;-74
2022/04/25 08:57:37;;;;;;;14.48;8.85;;;;;;;;;;4982735;28;20088;-78
2022/04/25 09:00:04;;;;;;;15.10;8.40;;;;;;;;;;4997125;28;20048;-74
2022/04/25 09:02:30;;;;;;;12.77;7.88;;;;;;;;;;4988059;28;20555;-74
2022/04/25 09:04:57;;;;;;;13.57;8.45;;;;;;;;;;4994934;28;20058;-74
2022/04/25 09:07:23;;;;;;;12.15;8.23;;;;;;;;;;4997424;28;20421;-73
2022/04/25 09:09:49;;;;;;;12.52;7.93;;;;;;;;;;4996267;28;20085;-74
2022/04/25 09:12:17;;;;;;;10.20;6.57;;;;;;;;;;4975033;28;20108;-74
2022/04/25 09:14:44;;;;;;;10.35;6.15;;;;;;;;;;4976296;28;20050;-72
2022/04/25 09:17:10;;;;;;;12.63;6.32;;;;;;;;;;4971282;28;20148;-73
2022/04/25 09:19:37;;;;;;;12.27;6.25;;;;;;;;;;5013136;28;20057;-74
2022/04/25 09:22:04;;;;;;;16.08;6.85;;;;;;;;;;4985049;28;20077;-73
2022/04/25 09:24:34;;;;;;;11.30;6.03;;;;;;;;;;4977744;28;20420;-72
2022/04/25 09:27:19;;;;;;;8.45;5.53;;;;;;;;;;4981040;28;20129;-75
2022/04/25 09:29:48;;;;;;;10.25;5.80;;;;;;;;;;4988285;28;20089;-73
2022/04/25 09:32:16;;;;;;;11.43;5.63;;;;;;;;;;4993671;28;20350;-75
2022/04/25 09:35:02;;;;;;;10.77;5.05;;;;;;;;;;4993442;28;20113;-75
2022/04/25 09:37:54;;;;;;;12.88;5.72;;;;;;;;;;4979694;28;20557;-75
2022/04/25 09:40:21;;;;;;;9.32;4.82;;;;;;;;;;4993448;28;20053;-75
2022/04/25 09:42:48;;;;;;;11.25;5.32;;;;;;;;;;5011320;28;20444;-75
2022/04/25 09:45:15;;;;;;;17.40;4.82;;;;;;;;;;5002803;28;20077;-75
2022/04/25 09:47:41;;;;;;;12.23;4.82;;;;;;;;;;4962655;28;20052;-75
2022/04/25 09:50:15;;;;;;;10.45;4.85;;;;;;;;;;4994963;28;20163;-75
2022/04/25 09:52:53;;;;;;;12.82;4.78;;;;;;;;;;5003602;28;20084;-76
2022/04/25 09:55:20;;;;;;;9.77;4.22;;;;;;;;;;4990888;28;20494;-76
2022/04/25 09:57:48;;;;;;;8.18;4.57;;;;;;;;;;5003000;28;20077;-75
2022/04/25 10:00:36;;;;;;;7.50;4.43;;;;;;;;;;4991997;28;20108;-75
2022/04/25 10:03:03;;;;;;;9.40;4.00;;;;;;;;;;5009982;28;20096;-75
2022/04/25 10:05:55;;;;;;;7.82;4.07;;;;;;;;;;4984380;28;20054;-75
2022/04/25 10:08:23;;;;;;;9.00;4.60;;;;;;;;;;4993123;28;20108;-75
2022/04/25 10:10:49;;;;;;;7.80;3.88;;;;;;;;;;4995854;28;20558;-75
2022/04/25 10:13:15;;;;;;;7.80;4.22;;;;;;;;;;5010209;28;20058;-75
2022/04/25 10:15:42;;;;;;;8.00;4.15;;;;;;;;;;4994694;28;20042;-75
2022/04/25 10:18:09;;;;;;;7.22;4.95;;;;;;;;;;4993423;28;20042;-74
2022/04/25 10:20:36;;;;;;;6.05;4.25;;;;;;;;;;5010125;28;20568;-74
2022/04/25 10:23:06;;;;;;;11.07;4.57;;;;;;;;;;4992390;28;20452;-76
2022/04/25 10:25:32;;;;;;;7.70;4.43;;;;;;;;;;4989261;28;20117;-74
2022/04/25 10:28:00;;;;;;;10.27;4.85;;;;;;;;;;4994414;28;20100;-74
2022/04/25 10:30:31;;;;;;;7.75;3.80;;;;;;;;;;5011748;28;20045;-75
2022/04/25 10:33:15;;;;;;;7.05;4.32;;;;;;;;;;4994425;28;20038;-74
2022/04/25 10:35:42;;;;;;;8.35;4.10;;;;;;;;;;4994962;28;20050;-75
2022/04/25 10:44:19;;;;;;;11.40;4.43;;;;;;;;;;4990373;28;20038;-74
2022/04/25 10:47:04;;;;;;;9.13;4.38;;;;;;;;;;5004181;28;20046;-74
2022/04/25 10:49:31;;;;;;;6.18;4.28;;;;;;;;;;4992988;28;20108;-74
2022/04/25 10:51:57;;;;;;;10.13;4.20;;;;;;;;;;4969888;28;20053;-74
2022/04/25 10:54:27;;;;;;;6.22;4.03;;;;;;;;;;5010814;28;20104;-74
2022/04/25 10:57:09;;;;;;;7.50;4.18;;;;;;;;;;4976492;28;20450;-74
2022/04/25 10:59:35;;;;;;;8.32;4.25;;;;;;;;;;4994070;28;20060;-75
2022/04/25 11:02:20;;;;;;;8.30;5.03;;;;;;;;;;4980810;28;20045;-75
2022/04/25 11:04:46;;;;;;;7.20;4.32;;;;;;;;;;5005999;28;20502;-89
2022/04/25 11:07:25;;;;;;;6.32;4.38;;;;;;;;;;4991456;28;20449;-76
2022/04/25 11:09:52;;;;;;;8.80;4.25;;;;;;;;;;4987990;28;20050;-75
2022/04/25 11:12:19;;;;;;;6.30;4.03;;;;;;;;;;5008691;28;20129;-76
2022/04/25 11:14:58;;;;;;;7.22;3.90;;;;;;;;;;4993849;28;20046;-74
2022/04/25 11:17:26;;;;;;;5.85;3.65;;;;;;;;;;4994319;28;20046;-76
2022/04/25 11:19:56;;;;;;;5.65;3.63;;;;;;;;;;4995514;28;20128;-75
2022/04/25 11:22:48;;;;;;;8.57;4.13;;;;;;;;;;5003061;28;20066;-75
2022/04/25 11:25:20;;;;;;;8.85;4.10;;;;;;;;;;4999152;28;20108;-76
2022/04/25 11:28:07;;;;;;;9.13;3.33;;;;;;;;;;5008357;28;20042;-77
2022/04/25 11:30:33;;;;;;;6.47;4.25;;;;;;;;;;4988241;28;20037;-75
2022/04/25 11:33:10;;;;;;;9.85;4.72;;;;;;;;;;5010381;28;20046;-75
2022/04/25 11:35:36;;;;;;;;;;;;;;;;;;5010523;28;20421;-74
2022/04/25 11:38:02;;;;;;;;;;;;;;;;;;4988184;28;19976;-75
2022/04/25 11:40:27;;;;;;;;;;;;;;;;;;4973115;28;19921;-75
2022/04/25 11:42:53;;;;;;;;;;;;;;;;;;4987453;28;19967;-77
2022/04/25 11:45:19;;;;;;;;;;;;;;;;;;4976103;28;19930;-78
2022/04/25 11:47:46;;;;;;;11.88;4.03;;;;;;;;;;4975500;28;19930;-76
2022/04/25 11:50:12;;;;;;;10.07;4.25;;;;;;;;;;4989482;28;20389;-76
2022/04/25 11:52:49;;;;;;;7.40;4.40;;;;;;;;;;5002725;28;20041;-77
2022/04/25 11:55:17;;;;;;;9.30;4.30;;;;;;;;;;5006788;28;20050;-77
2022/04/25 11:57:45;;;;;;;6.57;4.40;;;;;;;;;;5004062;28;20567;-79
2022/04/25 12:00:13;;;;;;;8.18;4.30;;;;;;;;;;4989731;28;20554;-76
2022/04/25 12:02:39;;;;;;;8.60;4.60;;;;;;;;;;4973062;28;20045;-78
2022/04/25 12:05:07;;;;;;;10.10;4.15;;;;;;;;;;4981711;28;20050;-78
2022/04/25 12:07:34;;;;;;;9.77;4.50;;;;;;;;;;4999730;28;20088;-77
2022/04/25 12:15:46;;;;;;;10.02;5.00;;;;;;;;;;4983992;28;20134;-78
2022/04/25 12:18:21;;;;;;;10.48;5.05;;;;;;;;;;4969954;28;20109;-79
2022/04/25 12:21:08;;;;;;;7.90;4.85;;;;;;;;;;5003151;28;20061;-79
2022/04/25 12:23:34;;;;;;;9.57;5.00;;;;;;;;;;4976218;28;20133;-78
2022/04/25 12:26:03;;;;;;;12.45;5.10;;;;;;;;;;4991436;28;20050;-77
2022/04/25 12:28:30;;;;;;;11.40;5.03;;;;;;;;;;4991742;28;20041;-77
2022/04/25 12:31:07;;;;;;;12.30;5.20;;;;;;;;;;5007150;28;20167;-76
2022/04/25 12:33:34;;;;;;;7.80;4.88;;;;;;;;;;5003787;28;20133;-75
2022/04/25 12:36:11;;;;;;;8.13;4.40;;;;;;;;;;5008698;28;20050;-75
2022/04/25 12:38:40;;;;;;;7.88;4.53;;;;;;;;;;5010740;28;20089;-75
2022/04/25 12:41:08;;;;;;;7.97;5.45;;;;;;;;;;5013556;28;20054;-75
2022/04/25 12:43:42;;;;;;;10.57;4.97;;;;;;;;;;5011061;28;20883;-75
2022/04/25 12:46:08;;;;;;;10.57;4.97;;;;;;;;;;4989204;28;20096;-75
2022/04/25 12:48:55;;;;;;;8.85;4.80;;;;;;;;;;4963932;28;20042;-75
2022/04/25 12:51:29;;;;;;;8.30;4.70;;;;;;;;;;4980205;28;20042;-76
2022/04/25 12:53:55;;;;;;;8.85;4.88;;;;;;;;;;4991221;28;20561;-75
2022/04/25 12:56:28;;;;;;;10.63;5.15;;;;;;;;;;5010507;28;20097;-76
2022/04/25 12:58:55;;;;;;;8.23;4.63;;;;;;;;;;4993408;28;20096;-76
2022/04/25 13:01:35;;;;;;;12.13;4.82;;;;;;;;;;5003300;28;20085;-77
2022/04/25 13:04:12;;;;;;;15.93;5.10;;;;;;;;;;4995378;28;20359;-76
2022/04/25 13:06:39;;;;;;;8.57;4.93;;;;;;;;;;5012305;28;20525;-76
2022/04/25 13:09:05;;;;;;;8.73;4.90;;;;;;;;;;4994028;28;20555;-76
2022/04/25 13:11:31;;;;;;;10.52;4.70;;;;;;;;;;4994875;28;20046;-77
2022/04/25 13:13:58;;;;;;;10.23;4.40;;;;;;;;;;4995954;28;20108;-76
2022/04/25 13:16:24;;;;;;;8.05;4.45;;;;;;;;;;5001331;28;20076;-76
2022/04/25 13:18:50;;;;;;;8.65;4.80;;;;;;;;;;4994825;28;20050;-76
2022/04/25 13:21:17;;;;;;;10.80;5.30;;;;;;;;;;4969840;28;20133;-77
2022/04/25 13:23:43;;;;;;;8.48;5.30;;;;;;;;;;5006613;28;20467;-76
2022/04/25 13:26:09;;;;;;;9.10;5.47;;;;;;;;;;4994690;28;20459;-76
2022/04/25 13:28:36;;;;;;;7.53;5.20;;;;;;;;;;4999879;28;20426;-76
2022/04/25 13:31:02;;;;;;;9.43;5.40;;;;;;;;;;5011613;28;20768;-76
2022/04/25 13:33:28;;;;;;;8.30;5.20;;;;;;;;;;4994114;28;20432;-77
2022/04/25 13:35:54;;;;;;;9.45;5.63;;;;;;;;;;5003529;28;20486;-77
2022/04/25 13:38:20;;;;;;;7.40;5.30;;;;;;;;;;4976240;28;20915;-77
2022/04/25 13:40:47;;;;;;;10.77;6.03;;;;;;;;;;4994810;28;20438;-76
2022/04/25 13:43:15;;;;;;;9.13;5.47;;;;;;;;;;4993683;28;20429;-76
2022/04/25 13:45:41;;;;;;;9.35;6.15;;;;;;;;;;5010298;28;20539;-76
2022/04/25 13:48:07;;;;;;;11.37;6.37;;;;;;;;;;5003189;28;20462;-76
2022/04/25 13:50:36;;;;;;;9.83;6.20;;;;;;;;;;4978158;28;20953;-76
2022/04/25 13:53:03;;;;;;;10.27;6.32;;;;;;;;;;4961062;28;20443;-79
2022/04/25 13:55:35;;;;;;;11.18;6.70;;;;;;;;;;4978157;28;20572;-76
2022/04/25 13:58:03;;;;;;;16.08;6.47;;;;;;;;;;5009231;28;20422;-77
2022/04/25 14:00:29;;;;;;;11.60;6.70;;;;;;;;;;5008446;28;20429;-76
2022/04/25 14:03:08;;;;;;;11.65;6.57;;;;;;;;;;4988017;28;20429;-77
2022/04/25 14:05:35;;;;;;;8.43;6.30;;;;;;;;;;4994138;28;20797;-76
2022/04/25 14:08:02;;;;;;;10.13;6.28;;;;;;;;;;4959960;28;20504;-77
2022/04/25 14:10:28;;;;;;;11.07;6.65;;;;;;;;;;4992768;28;20422;-77
2022/04/25 14:12:54;;;;;;;11.30;5.57;;;;;;;;;;4994935;28;20068;-76
2022/04/25 14:15:21;;;;;;;7.05;5.70;;;;;;;;;;4978567;28;20042;-77
2022/04/25 14:17:47;;;;;;;9.88;6.13;;;;;;;;;;4977321;28;20421;-76
2022/04/25 14:20:14;;;;;;;7.00;5.30;;;;;;;;;;5011365;28;20061;-76
2022/04/25 14:22:41;;;;;;;9.70;5.95;;;;;;;;;;5007683;28;20049;-76
2022/04/25 14:25:08;;;;;;;10.23;5.45;;;;;;;;;;5010135;28;20042;-76
2022/04/25 14:27:37;;;;;;;7.57;5.43;;;;;;;;;;4993262;28;20042;-76
2022/04/25 14:30:09;;;;;;;10.32;5.95;;;;;;;;;;5004385;28;20129;-76
2022/04/25 14:32:35;;;;;;;10.30;5.95;;;;;;;;;;4983229;28;20085;-76
2022/04/25 14:35:02;;;;;;;12.75;5.63;;;;;;;;;;5009253;28;20054;-77
2022/04/25 14:37:28;;;;;;;8.38;5.28;;;;;;;;;;4994852;28;20092;-77
2022/04/25 14:39:54;;;;;;;10.90;5.38;;;;;;;;;;4978699;28;20048;-76
2022/04/25 14:42:20;;;;;;;9.50;5.63;;;;;;;;;;5009800;28;20121;-76
2022/04/25 14:44:46;;;;;;;9.27;5.22;;;;;;;;;;5001063;28;20134;-76
2022/04/25 14:47:12;;;;;;;11.50;5.53;;;;;;;;;;5002377;28;20046;-78
2022/04/25 14:55:10;;;;;;;12.52;5.80;;;;;;;;;;4979961;28;20049;-77
2022/04/25 14:57:36;;;;;;;7.93;5.15;;;;;;;;;;5009329;28;20046;-76
2022/04/25 15:00:02;;;;;;;7.72;4.72;;;;;;;;;;4991035;28;20042;-79
2022/04/25 15:02:28;;;;;;;11.45;5.53;;;;;;;;;;5009190;28;20565;-78
2022/04/25 15:04:54;;;;;;;9.57;5.22;;;;;;;;;;4972357;28;20046;-78
2022/04/25 15:07:20;;;;;;;8.82;4.50;;;;;;;;;;4999422;28;20042;-85
2022/04/25 15:09:46;;;;;;;7.35;4.47;;;;;;;;;;4967684;28;20057;-77
2022/04/25 15:12:12;;;;;;;10.32;4.55;;;;;;;;;;4984986;28;20057;-77